Time;durP1;ratioP1;P1;durP2;ratioP2;P2;SDS_P1;SDS_P2;PMS_P1;PMS_P2;Temp;Humidity;BMP_temperature;BMP_pressure;BME280_temperature;BME280_humidity;BME280_pressure;Samples;Min_cycle;Max_cycle;Signal;HPM_P1;HPM_P2
2023/11/22 00:00:57;;;;;;;0.20;0.20;;;;;;;;;;5012534;28;20606;-73
2023/11/22 00:03:24;;;;;;;0.20;0.20;;;;;;;;;;5021214;28;20206;-73
2023/11/22 00:05:51;;;;;;;0.20;0.20;;;;;;;;;;5012481;28;20421;-72
2023/11/22 00:08:17;;;;;;;0.20;0.20;;;;;;;;;;5021418;28;20477;-73
2023/11/22 00:10:51;;;;;;;0.20;0.20;;;;;;;;;;5012549;28;20244;-72
2023/11/22 00:13:19;;;;;;;0.20;0.20;;;;;;;;;;5021113;28;20211;-73
2023/11/22 00:15:46;;;;;;;0.33;0.33;;;;;;;;;;5012259;28;20311;-74
2023/11/22 00:18:12;;;;;;;0.20;0.20;;;;;;;;;;5021036;28;20250;-74
2023/11/22 00:20:39;;;;;;;0.20;0.20;;;;;;;;;;5012529;28;20495;-75
2023/11/22 00:23:06;;;;;;;0.20;0.20;;;;;;;;;;5021051;28;20229;-75
2023/11/22 00:25:32;;;;;;;0.20;0.20;;;;;;;;;;5012124;28;20480;-74
2023/11/22 00:27:58;;;;;;;0.20;0.20;;;;;;;;;;5020646;28;20205;-74
2023/11/22 00:30:26;;;;;;;0.20;0.20;;;;;;;;;;5012494;28;20678;-75
2023/11/22 00:32:53;;;;;;;0.30;0.30;;;;;;;;;;5020877;28;20216;-75
2023/11/22 00:35:19;;;;;;;0.20;0.20;;;;;;;;;;5012246;28;20206;-75
2023/11/22 00:37:46;;;;;;;0.20;0.20;;;;;;;;;;5020349;28;20289;-75
2023/11/22 00:40:11;;;;;;;0.97;0.97;;;;;;;;;;5012206;28;20221;-74
2023/11/22 00:42:39;;;;;;;0.20;0.20;;;;;;;;;;5020464;28;20216;-74
2023/11/22 00:45:06;;;;;;;0.20;0.20;;;;;;;;;;5021524;28;20208;-74
2023/11/22 00:47:34;;;;;;;0.20;0.20;;;;;;;;;;5011397;28;20312;-75
2023/11/22 00:50:00;;;;;;;0.20;0.20;;;;;;;;;;5021134;28;20296;-75
2023/11/22 00:52:27;;;;;;;0.20;0.20;;;;;;;;;;5011357;28;20432;-75
2023/11/22 00:54:54;;;;;;;0.20;0.20;;;;;;;;;;5021378;28;20460;-75
2023/11/22 00:57:20;;;;;;;0.20;0.20;;;;;;;;;;5011166;28;20268;-74
2023/11/22 00:59:47;;;;;;;0.23;0.23;;;;;;;;;;5021021;28;20239;-73
2023/11/22 01:02:14;;;;;;;0.20;0.20;;;;;;;;;;5011160;28;20483;-74
2023/11/22 01:04:42;;;;;;;0.20;0.20;;;;;;;;;;5021220;28;20198;-74
2023/11/22 01:07:08;;;;;;;0.20;0.20;;;;;;;;;;5011115;28;20260;-74
2023/11/22 01:09:34;;;;;;;0.20;0.20;;;;;;;;;;5021240;28;20237;-74
2023/11/22 01:12:01;;;;;;;0.20;0.20;;;;;;;;;;5011078;28;20449;-75
2023/11/22 01:14:28;;;;;;;0.20;0.20;;;;;;;;;;5020868;28;20242;-73
2023/11/22 01:16:55;;;;;;;0.20;0.20;;;;;;;;;;5010809;28;20489;-73
2023/11/22 01:19:21;;;;;;;0.20;0.20;;;;;;;;;;5020977;28;20230;-74
2023/11/22 01:21:49;;;;;;;0.20;0.20;;;;;;;;;;5010934;28;20484;-73
2023/11/22 01:24:16;;;;;;;0.20;0.20;;;;;;;;;;5020566;28;20213;-75
2023/11/22 01:26:42;;;;;;;0.20;0.20;;;;;;;;;;5010924;28;20483;-74
2023/11/22 01:29:11;;;;;;;0.20;0.20;;;;;;;;;;5020705;28;20233;-74
2023/11/22 01:31:38;;;;;;;0.30;0.30;;;;;;;;;;5010985;28;20260;-74
2023/11/22 01:34:05;;;;;;;0.27;0.27;;;;;;;;;;5020494;28;20269;-75
2023/11/22 01:36:31;;;;;;;0.30;0.30;;;;;;;;;;5011838;28;20249;-75
2023/11/22 01:38:59;;;;;;;0.20;0.20;;;;;;;;;;5024056;28;20225;-74
2023/11/22 01:41:26;;;;;;;0.20;0.20;;;;;;;;;;5014393;28;20240;-74
2023/11/22 01:43:52;;;;;;;0.20;0.20;;;;;;;;;;5023738;28;20394;-74
2023/11/22 01:46:22;;;;;;;0.27;0.27;;;;;;;;;;5014576;28;20244;-75
2023/11/22 01:48:49;;;;;;;0.20;0.20;;;;;;;;;;5023618;28;20209;-74
2023/11/22 01:51:15;;;;;;;0.23;0.23;;;;;;;;;;5014457;28;20241;-75
2023/11/22 01:53:42;;;;;;;0.20;0.20;;;;;;;;;;5023540;28;20214;-75
2023/11/22 01:56:10;;;;;;;0.20;0.20;;;;;;;;;;5014203;28;20266;-74
2023/11/22 01:58:36;;;;;;;0.20;0.20;;;;;;;;;;5023630;28;20215;-75
2023/11/22 02:01:05;;;;;;;0.20;0.20;;;;;;;;;;5014275;28;20260;-75
2023/11/22 02:03:31;;;;;;;0.20;0.20;;;;;;;;;;5023562;28;20272;-76
2023/11/22 02:05:58;;;;;;;0.20;0.20;;;;;;;;;;5014454;28;20248;-74
2023/11/22 02:08:25;;;;;;;0.20;0.20;;;;;;;;;;5023510;28;20397;-75
2023/11/22 02:10:58;;;;;;;0.30;0.30;;;;;;;;;;5014045;28;20244;-75
2023/11/22 02:13:26;;;;;;;0.20;0.20;;;;;;;;;;5023323;28;20205;-76
2023/11/22 02:15:55;;;;;;;0.20;0.20;;;;;;;;;;5014199;28;20241;-75
2023/11/22 02:18:23;;;;;;;0.20;0.20;;;;;;;;;;5023029;28;20216;-76
2023/11/22 02:20:49;;;;;;;0.20;0.20;;;;;;;;;;5014303;28;20252;-75
2023/11/22 02:23:17;;;;;;;0.20;0.20;;;;;;;;;;5022821;28;20199;-75
2023/11/22 02:25:43;;;;;;;0.20;0.20;;;;;;;;;;5014172;28;20310;-75
2023/11/22 02:28:09;;;;;;;0.20;0.20;;;;;;;;;;5022913;28;20281;-75
2023/11/22 02:30:36;;;;;;;0.20;0.20;;;;;;;;;;5014207;28;20491;-75
2023/11/22 02:33:02;;;;;;;0.30;0.30;;;;;;;;;;5022420;28;20209;-75
2023/11/22 02:35:30;;;;;;;0.20;0.20;;;;;;;;;;5014350;28;20246;-75
2023/11/22 02:37:56;;;;;;;0.30;0.30;;;;;;;;;;5022242;28;20217;-75
2023/11/22 02:40:24;;;;;;;0.20;0.20;;;;;;;;;;5014089;28;20221;-76
2023/11/22 02:42:51;;;;;;;0.20;0.20;;;;;;;;;;5022314;28;20219;-74
2023/11/22 02:45:18;;;;;;;0.30;0.30;;;;;;;;;;5013941;28;20249;-74
2023/11/22 02:47:46;;;;;;;0.30;0.30;;;;;;;;;;5022260;28;20288;-75
2023/11/22 02:50:12;;;;;;;0.20;0.20;;;;;;;;;;5014017;28;20232;-74
2023/11/22 02:52:39;;;;;;;0.20;0.20;;;;;;;;;;5022182;28;20216;-75
2023/11/22 02:55:06;;;;;;;0.23;0.23;;;;;;;;;;5023013;28;20208;-75
2023/11/22 02:57:33;;;;;;;0.20;0.20;;;;;;;;;;5012803;28;20487;-75
2023/11/22 03:00:00;;;;;;;0.20;0.20;;;;;;;;;;5022990;28;20212;-75
2023/11/22 03:02:27;;;;;;;0.20;0.20;;;;;;;;;;5012788;28;20256;-75
2023/11/22 03:04:53;;;;;;;0.20;0.20;;;;;;;;;;5022801;28;20271;-75
2023/11/22 03:07:20;;;;;;;0.20;0.20;;;;;;;;;;5012838;28;20245;-75
2023/11/22 03:09:46;;;;;;;0.20;0.20;;;;;;;;;;5023108;28;20237;-73
2023/11/22 03:12:13;;;;;;;0.30;0.30;;;;;;;;;;5012762;28;20260;-75
2023/11/22 03:14:41;;;;;;;0.30;0.30;;;;;;;;;;5023052;28;20249;-75
2023/11/22 03:17:08;;;;;;;0.20;0.20;;;;;;;;;;5012663;28;20255;-74
2023/11/22 03:19:34;;;;;;;0.20;0.20;;;;;;;;;;5022988;28;20254;-75
2023/11/22 03:22:02;;;;;;;0.20;0.20;;;;;;;;;;5012445;28;20243;-75
2023/11/22 03:24:29;;;;;;;0.20;0.20;;;;;;;;;;5022783;28;20212;-74
2023/11/22 03:26:58;;;;;;;0.20;0.20;;;;;;;;;;5012477;28;20268;-74
2023/11/22 03:29:24;;;;;;;0.27;0.27;;;;;;;;;;5022337;28;20237;-74
2023/11/22 03:31:52;;;;;;;0.20;0.20;;;;;;;;;;5012488;28;20302;-74
2023/11/22 03:34:19;;;;;;;0.20;0.20;;;;;;;;;;5022579;28;20250;-75
2023/11/22 03:36:46;;;;;;;0.20;0.20;;;;;;;;;;5012408;28;20244;-74
2023/11/22 03:39:14;;;;;;;0.30;0.30;;;;;;;;;;5022217;28;20236;-74
2023/11/22 03:41:41;;;;;;;0.20;0.20;;;;;;;;;;5012276;28;20247;-74
2023/11/22 03:44:08;;;;;;;0.30;0.30;;;;;;;;;;5022330;28;20211;-74
2023/11/22 03:46:35;;;;;;;0.23;0.23;;;;;;;;;;5012587;28;20244;-74
2023/11/22 03:49:03;;;;;;;1.03;1.03;;;;;;;;;;5021980;28;20233;-75
2023/11/22 03:51:30;;;;;;;0.30;0.30;;;;;;;;;;5012411;28;20266;-75
2023/11/22 03:53:57;;;;;;;0.20;0.20;;;;;;;;;;5022001;28;20207;-75
2023/11/22 03:56:23;;;;;;;0.30;0.30;;;;;;;;;;5012477;28;20478;-75
2023/11/22 03:58:49;;;;;;;0.20;0.20;;;;;;;;;;5021124;28;20216;-74
2023/11/22 04:01:18;;;;;;;0.20;0.20;;;;;;;;;;5012409;28;20246;-74
2023/11/22 04:03:44;;;;;;;0.30;0.30;;;;;;;;;;5021790;28;20401;-75
2023/11/22 04:06:12;;;;;;;0.30;0.30;;;;;;;;;;5012365;28;20242;-74
2023/11/22 04:08:39;;;;;;;0.30;0.30;;;;;;;;;;5021459;28;20242;-74
2023/11/22 04:11:05;;;;;;;0.30;0.30;;;;;;;;;;5012178;28;20308;-74
2023/11/22 04:13:31;;;;;;;0.20;0.20;;;;;;;;;;5021155;28;20224;-74
2023/11/22 04:15:58;;;;;;;0.20;0.20;;;;;;;;;;5012286;28;20251;-74
2023/11/22 04:18:25;;;;;;;0.30;0.30;;;;;;;;;;5021444;28;20564;-74
2023/11/22 04:20:51;;;;;;;0.27;0.27;;;;;;;;;;5012269;28;20310;-74
2023/11/22 04:23:20;;;;;;;0.30;0.30;;;;;;;;;;5021104;28;20256;-75
2023/11/22 04:25:46;;;;;;;0.20;0.20;;;;;;;;;;5012390;28;20248;-75
2023/11/22 04:28:12;;;;;;;0.30;0.30;;;;;;;;;;5021063;28;20458;-75
2023/11/22 04:30:39;;;;;;;0.30;0.30;;;;;;;;;;5012236;28;20271;-75
2023/11/22 04:33:06;;;;;;;0.30;0.30;;;;;;;;;;5020866;28;20379;-74
2023/11/22 04:35:36;;;;;;;0.30;0.30;;;;;;;;;;5012236;28;20244;-74
2023/11/22 04:38:02;;;;;;;0.30;0.30;;;;;;;;;;5020455;28;20223;-75
2023/11/22 04:40:30;;;;;;;0.30;0.30;;;;;;;;;;5012225;28;20524;-75
2023/11/22 04:42:56;;;;;;;0.30;0.30;;;;;;;;;;5020505;28;20271;-74
2023/11/22 04:45:23;;;;;;;0.30;0.30;;;;;;;;;;5012187;28;20288;-74
2023/11/22 04:47:49;;;;;;;0.20;0.20;;;;;;;;;;5020503;28;20239;-75
2023/11/22 04:50:15;;;;;;;0.27;0.27;;;;;;;;;;5012061;28;20453;-74
2023/11/22 04:52:42;;;;;;;0.20;0.20;;;;;;;;;;5020416;28;20236;-76
2023/11/22 04:55:09;;;;;;;0.30;0.30;;;;;;;;;;5021417;28;20233;-74
2023/11/22 04:57:37;;;;;;;0.30;0.30;;;;;;;;;;5010036;28;20210;-76
2023/11/22 05:00:07;;;;;;;0.30;0.30;;;;;;;;;;5021239;28;20209;-76
2023/11/22 05:02:33;;;;;;;0.30;0.30;;;;;;;;;;5011068;28;20245;-76
2023/11/22 05:04:59;;;;;;;0.27;0.27;;;;;;;;;;5020970;28;20208;-75
2023/11/22 05:07:26;;;;;;;0.20;0.20;;;;;;;;;;5010854;28;20244;-75
2023/11/22 05:09:52;;;;;;;0.20;0.20;;;;;;;;;;5021190;28;20205;-74
2023/11/22 05:12:19;;;;;;;0.27;0.27;;;;;;;;;;5009786;28;20567;-75
2023/11/22 05:14:46;;;;;;;0.30;0.30;;;;;;;;;;5021282;28;20508;-74
2023/11/22 05:17:13;;;;;;;0.27;0.27;;;;;;;;;;5010837;28;20319;-74
2023/11/22 05:19:39;;;;;;;0.30;0.30;;;;;;;;;;5020973;28;20200;-74
2023/11/22 05:22:06;;;;;;;0.30;0.30;;;;;;;;;;5010775;28;20244;-75
2023/11/22 05:24:34;;;;;;;0.20;0.20;;;;;;;;;;5020670;28;20207;-74
2023/11/22 05:27:01;;;;;;;0.20;0.20;;;;;;;;;;5010960;28;20263;-74
2023/11/22 05:29:27;;;;;;;0.30;0.30;;;;;;;;;;5020929;28;20212;-74
2023/11/22 05:31:55;;;;;;;0.23;0.23;;;;;;;;;;5010921;28;20266;-74
2023/11/22 05:34:22;;;;;;;0.30;0.30;;;;;;;;;;5020700;28;20213;-75
2023/11/22 05:36:48;;;;;;;0.20;0.20;;;;;;;;;;5010821;28;20467;-74
2023/11/22 05:39:15;;;;;;;0.27;0.27;;;;;;;;;;5020799;28;20547;-75
2023/11/22 05:41:41;;;;;;;0.20;0.20;;;;;;;;;;5010932;28;20251;-75
2023/11/22 05:44:08;;;;;;;0.30;0.30;;;;;;;;;;5020318;28;20219;-75
2023/11/22 05:46:34;;;;;;;0.30;0.30;;;;;;;;;;5010837;28;20259;-75
2023/11/22 05:49:02;;;;;;;0.30;0.30;;;;;;;;;;5020163;28;20236;-75
2023/11/22 05:51:28;;;;;;;0.30;0.30;;;;;;;;;;5010452;28;20307;-75
2023/11/22 05:53:55;;;;;;;0.30;0.30;;;;;;;;;;5020111;28;20274;-75
2023/11/22 05:56:21;;;;;;;0.30;0.30;;;;;;;;;;5010644;28;20299;-74
2023/11/22 05:58:48;;;;;;;0.30;0.30;;;;;;;;;;5019915;28;20278;-74
2023/11/22 06:01:14;;;;;;;0.20;0.20;;;;;;;;;;5010978;28;20265;-75
2023/11/22 06:03:41;;;;;;;0.20;0.20;;;;;;;;;;5019820;28;20254;-76
2023/11/22 06:06:09;;;;;;;0.30;0.30;;;;;;;;;;5010801;28;20311;-75
2023/11/22 06:08:35;;;;;;;0.30;0.30;;;;;;;;;;5019749;28;20213;-76
2023/11/22 06:11:03;;;;;;;0.27;0.27;;;;;;;;;;5010822;28;20260;-76
2023/11/22 06:13:29;;;;;;;0.20;0.20;;;;;;;;;;5019857;28;20208;-76
2023/11/22 06:15:56;;;;;;;0.20;0.20;;;;;;;;;;5010509;28;20245;-75
2023/11/22 06:18:22;;;;;;;0.20;0.20;;;;;;;;;;5019489;28;20208;-75
2023/11/22 06:20:49;;;;;;;0.20;0.20;;;;;;;;;;5010606;28;20240;-73
2023/11/22 06:23:16;;;;;;;0.20;0.20;;;;;;;;;;5021742;28;20215;-74
2023/11/22 06:25:43;;;;;;;0.20;0.20;;;;;;;;;;5014166;28;20241;-74
2023/11/22 06:28:10;;;;;;;0.30;0.30;;;;;;;;;;5022740;28;20230;-74
2023/11/22 06:30:36;;;;;;;0.20;0.20;;;;;;;;;;5014074;28;20256;-74
2023/11/22 06:33:02;;;;;;;0.20;0.20;;;;;;;;;;5022568;28;20228;-74
2023/11/22 06:35:29;;;;;;;0.20;0.20;;;;;;;;;;5014270;28;20249;-75
2023/11/22 06:37:55;;;;;;;0.20;0.20;;;;;;;;;;5022235;28;20566;-75
2023/11/22 06:40:23;;;;;;;0.20;0.20;;;;;;;;;;5013931;28;20298;-74
2023/11/22 06:42:49;;;;;;;0.30;0.30;;;;;;;;;;5022424;28;20220;-74
2023/11/22 06:45:16;;;;;;;0.30;0.30;;;;;;;;;;5014037;28;20235;-74
2023/11/22 06:47:42;;;;;;;0.23;0.23;;;;;;;;;;5022322;28;20409;-74
2023/11/22 06:50:10;;;;;;;0.20;0.20;;;;;;;;;;5019421;28;20272;-73
2023/11/22 06:52:38;;;;;;;0.30;0.30;;;;;;;;;;5022013;28;20275;-74
2023/11/22 06:55:04;;;;;;;0.20;0.20;;;;;;;;;;5023316;28;20240;-75
2023/11/22 06:57:32;;;;;;;0.30;0.30;;;;;;;;;;5012949;28;20244;-75
2023/11/22 06:59:58;;;;;;;0.30;0.30;;;;;;;;;;5022901;28;20280;-75
2023/11/22 07:02:25;;;;;;;0.20;0.20;;;;;;;;;;5012973;28;20240;-75
2023/11/22 07:04:51;;;;;;;0.20;0.20;;;;;;;;;;5022818;28;20215;-74
2023/11/22 07:07:18;;;;;;;0.20;0.20;;;;;;;;;;5012980;28;20438;-75
2023/11/22 07:09:46;;;;;;;0.20;0.20;;;;;;;;;;5023113;28;20208;-75
2023/11/22 07:12:12;;;;;;;0.20;0.20;;;;;;;;;;5012601;28;20244;-75
2023/11/22 07:14:43;;;;;;;0.23;0.23;;;;;;;;;;5022973;28;20212;-74
2023/11/22 07:17:10;;;;;;;0.20;0.20;;;;;;;;;;5012829;28;20598;-75
2023/11/22 07:19:38;;;;;;;0.20;0.20;;;;;;;;;;5022621;28;20205;-75
2023/11/22 07:22:04;;;;;;;0.30;0.30;;;;;;;;;;5012709;28;20528;-76
2023/11/22 07:24:34;;;;;;;0.30;0.30;;;;;;;;;;5022877;28;20208;-75
2023/11/22 07:27:00;;;;;;;0.30;0.30;;;;;;;;;;5012488;28;20244;-75
2023/11/22 07:29:29;;;;;;;0.20;0.20;;;;;;;;;;5022721;28;20291;-76
2023/11/22 07:31:57;;;;;;;0.30;0.30;;;;;;;;;;5012473;28;20262;-75
2023/11/22 07:34:24;;;;;;;0.20;0.20;;;;;;;;;;5021196;28;20211;-75
2023/11/22 07:36:50;;;;;;;0.30;0.30;;;;;;;;;;5012389;28;20244;-74
2023/11/22 07:39:19;;;;;;;0.30;0.30;;;;;;;;;;5022349;28;20279;-74
2023/11/22 07:41:48;;;;;;;0.30;0.30;;;;;;;;;;5012583;28;20243;-75
2023/11/22 07:44:15;;;;;;;0.20;0.20;;;;;;;;;;5022362;28;20402;-74
2023/11/22 07:46:44;;;;;;;0.20;0.20;;;;;;;;;;5012405;28;20245;-75
2023/11/22 07:49:13;;;;;;;0.27;0.27;;;;;;;;;;5021843;28;20268;-75
2023/11/22 07:51:40;;;;;;;0.20;0.20;;;;;;;;;;5012519;28;20275;-74
2023/11/22 07:54:06;;;;;;;0.30;0.30;;;;;;;;;;5022028;28;20275;-74
2023/11/22 07:56:33;;;;;;;0.30;0.30;;;;;;;;;;5012263;28;20248;-75
2023/11/22 07:58:59;;;;;;;0.30;0.30;;;;;;;;;;5021966;28;20238;-76
2023/11/22 08:01:26;;;;;;;0.20;0.20;;;;;;;;;;5012434;28;20504;-75
2023/11/22 08:03:52;;;;;;;0.20;0.20;;;;;;;;;;5021778;28;20208;-75
2023/11/22 08:06:20;;;;;;;0.30;0.30;;;;;;;;;;5012382;28;20248;-75
2023/11/22 08:08:47;;;;;;;0.20;0.20;;;;;;;;;;5021430;28;20208;-75
2023/11/22 08:11:15;;;;;;;0.30;0.30;;;;;;;;;;5012144;28;20430;-74
2023/11/22 08:13:44;;;;;;;0.20;0.20;;;;;;;;;;5021544;28;20246;-75
2023/11/22 08:16:12;;;;;;;0.20;0.20;;;;;;;;;;5012346;28;20244;-74
2023/11/22 08:18:40;;;;;;;0.20;0.20;;;;;;;;;;5021138;28;20211;-74
2023/11/22 08:21:06;;;;;;;0.20;0.20;;;;;;;;;;5012133;28;20250;-75
2023/11/22 08:23:34;;;;;;;0.23;0.23;;;;;;;;;;5021475;28;20279;-76
2023/11/22 08:26:01;;;;;;;0.20;0.20;;;;;;;;;;5012050;28;20312;-75
2023/11/22 08:28:29;;;;;;;0.20;0.20;;;;;;;;;;5020939;28;20216;-75
2023/11/22 08:30:55;;;;;;;0.30;0.30;;;;;;;;;;5011951;28;20294;-75
2023/11/22 08:33:22;;;;;;;0.20;0.20;;;;;;;;;;5021159;28;20230;-75
2023/11/22 08:35:51;;;;;;;0.27;0.27;;;;;;;;;;5012345;28;20251;-74
2023/11/22 08:38:19;;;;;;;0.20;0.20;;;;;;;;;;5020589;28;20288;-75
2023/11/22 08:40:47;;;;;;;0.20;0.20;;;;;;;;;;5012067;28;20551;-75
2023/11/22 08:43:13;;;;;;;0.20;0.20;;;;;;;;;;5020789;28;20209;-75
2023/11/22 08:45:39;;;;;;;0.30;0.30;;;;;;;;;;5011706;28;20251;-74
2023/11/22 08:48:06;;;;;;;0.20;0.20;;;;;;;;;;5020469;28;20208;-75
2023/11/22 08:50:33;;;;;;;0.20;0.20;;;;;;;;;;5011901;28;20286;-76
2023/11/22 08:53:00;;;;;;;0.30;0.30;;;;;;;;;;5020545;28;20299;-75
2023/11/22 08:55:27;;;;;;;0.20;0.20;;;;;;;;;;5012279;28;20407;-75
2023/11/22 08:57:54;;;;;;;0.20;0.20;;;;;;;;;;5020076;28;20231;-75
2023/11/22 09:00:22;;;;;;;0.30;0.30;;;;;;;;;;5012097;28;20205;-77
2023/11/22 09:02:49;;;;;;;0.30;0.30;;;;;;;;;;5020277;28;20273;-75
2023/11/22 09:05:16;;;;;;;0.20;0.20;;;;;;;;;;5011868;28;20272;-75
2023/11/22 09:07:44;;;;;;;0.27;0.27;;;;;;;;;;5020268;28;20220;-75
2023/11/22 09:10:13;;;;;;;0.20;0.20;;;;;;;;;;5012144;28;20437;-74
2023/11/22 09:12:40;;;;;;;0.20;0.20;;;;;;;;;;5020168;28;20254;-75
2023/11/22 09:15:10;;;;;;;0.20;0.20;;;;;;;;;;5020860;28;20217;-74
2023/11/22 09:17:38;;;;;;;0.20;0.20;;;;;;;;;;5009987;28;20242;-75
2023/11/22 09:20:07;;;;;;;0.30;0.30;;;;;;;;;;5020713;28;20212;-74
2023/11/22 09:22:33;;;;;;;0.50;0.50;;;;;;;;;;5011029;28;20243;-73
2023/11/22 09:25:00;;;;;;;0.20;0.20;;;;;;;;;;5020766;28;20246;-74
2023/11/22 09:27:26;;;;;;;0.20;0.20;;;;;;;;;;5010955;28;20248;-73
2023/11/22 09:29:53;;;;;;;0.20;0.20;;;;;;;;;;5021002;28;20509;-74
2023/11/22 09:32:21;;;;;;;0.23;0.23;;;;;;;;;;5010840;28;20447;-74
2023/11/22 09:34:48;;;;;;;0.30;0.30;;;;;;;;;;5020895;28;20243;-74
2023/11/22 09:37:14;;;;;;;0.20;0.20;;;;;;;;;;5010443;28;20490;-75
2023/11/22 09:39:41;;;;;;;0.30;0.30;;;;;;;;;;5020498;28;20233;-74
2023/11/22 09:42:07;;;;;;;0.20;0.20;;;;;;;;;;5010679;28;20309;-74
2023/11/22 09:44:35;;;;;;;0.20;0.20;;;;;;;;;;5020850;28;20247;-75
2023/11/22 09:47:03;;;;;;;0.23;0.23;;;;;;;;;;5010527;28;20278;-74
2023/11/22 09:49:31;;;;;;;0.30;0.30;;;;;;;;;;5020187;28;20232;-74
2023/11/22 09:52:01;;;;;;;0.20;0.20;;;;;;;;;;5010532;28;20508;-74
2023/11/22 09:54:29;;;;;;;14.33;12.93;;;;;;;;;;5020601;28;20228;-75
2023/11/22 09:56:57;;;;;;;0.20;0.20;;;;;;;;;;5010731;28;20239;-75
2023/11/22 09:59:24;;;;;;;0.20;0.20;;;;;;;;;;5024017;28;20456;-75
2023/11/22 10:01:52;;;;;;;0.20;0.20;;;;;;;;;;5013930;28;20253;-75
2023/11/22 10:04:18;;;;;;;0.20;0.20;;;;;;;;;;5023846;28;20205;-75
2023/11/22 10:06:48;;;;;;;0.10;0.10;;;;;;;;;;5014271;28;20659;-75
2023/11/22 10:09:15;;;;;;;0.20;0.20;;;;;;;;;;5023586;28;20208;-75
2023/11/22 10:11:43;;;;;;;0.10;0.10;;;;;;;;;;5014009;28;20312;-75
2023/11/22 10:14:09;;;;;;;0.10;0.10;;;;;;;;;;5023384;28;20206;-75
2023/11/22 10:16:36;;;;;;;0.10;0.10;;;;;;;;;;5013904;28;20305;-76
2023/11/22 10:19:06;;;;;;;0.10;0.10;;;;;;;;;;5023501;28;20207;-75
2023/11/22 10:21:32;;;;;;;0.10;0.10;;;;;;;;;;5013994;28;20491;-74
2023/11/22 10:24:01;;;;;;;0.10;0.10;;;;;;;;;;5023370;28;20225;-75
2023/11/22 10:26:28;;;;;;;0.20;0.20;;;;;;;;;;5014002;28;20307;-75
2023/11/22 10:28:55;;;;;;;0.20;0.20;;;;;;;;;;5023190;28;20279;-74
2023/11/22 10:31:22;;;;;;;0.17;0.17;;;;;;;;;;5013805;28;20311;-75
2023/11/22 10:33:48;;;;;;;0.10;0.10;;;;;;;;;;5022865;28;20222;-74
2023/11/22 10:36:16;;;;;;;0.20;0.20;;;;;;;;;;5013502;28;20241;-74
2023/11/22 10:38:43;;;;;;;0.10;0.10;;;;;;;;;;5022863;28;20233;-76
2023/11/22 10:41:11;;;;;;;0.20;0.20;;;;;;;;;;5013802;28;20259;-75
2023/11/22 10:43:39;;;;;;;0.20;0.20;;;;;;;;;;5022878;28;20271;-75
2023/11/22 10:46:06;;;;;;;0.20;0.20;;;;;;;;;;5013484;28;20243;-74
2023/11/22 10:48:33;;;;;;;0.20;0.20;;;;;;;;;;5022884;28;20206;-76
2023/11/22 10:51:03;;;;;;;0.20;0.20;;;;;;;;;;5013651;28;20241;-75
2023/11/22 10:53:32;;;;;;;0.40;0.40;;;;;;;;;;5022455;28;20231;-74
2023/11/22 10:56:03;;;;;;;0.20;0.20;;;;;;;;;;5013476;28;20245;-74
2023/11/22 10:58:33;;;;;;;0.20;0.20;;;;;;;;;;5022627;28;20391;-75
2023/11/22 11:01:00;;;;;;;0.20;0.20;;;;;;;;;;5013500;28;20243;-76
2023/11/22 11:03:30;;;;;;;0.20;0.20;;;;;;;;;;5022592;28;20388;-75
2023/11/22 11:05:58;;;;;;;0.20;0.20;;;;;;;;;;5013568;28;20440;-75
2023/11/22 11:08:27;;;;;;;0.20;0.20;;;;;;;;;;5022010;28;20509;-75
2023/11/22 11:10:55;;;;;;;0.20;0.20;;;;;;;;;;5013457;28;20259;-75
2023/11/22 11:13:23;;;;;;;0.20;0.20;;;;;;;;;;5022016;28;20276;-75
2023/11/22 11:15:52;;;;;;;0.20;0.20;;;;;;;;;;5013407;28;20325;-73
2023/11/22 11:18:18;;;;;;;0.20;0.20;;;;;;;;;;5021943;28;20549;-76
2023/11/22 11:20:49;;;;;;;0.20;0.20;;;;;;;;;;5013240;28;20242;-75
2023/11/22 11:23:16;;;;;;;0.20;0.20;;;;;;;;;;5022269;28;20400;-75
2023/11/22 11:25:42;;;;;;;0.27;0.27;;;;;;;;;;5013497;28;20303;-74
2023/11/22 11:28:11;;;;;;;0.20;0.20;;;;;;;;;;5021993;28;20429;-73
2023/11/22 11:30:48;;;;;;;0.20;0.20;;;;;;;;;;5013203;28;20252;-75
2023/11/22 11:33:17;;;;;;;0.20;0.20;;;;;;;;;;5021744;28;20262;-74
2023/11/22 11:35:45;;;;;;;0.20;0.20;;;;;;;;;;5013353;28;20495;-74
2023/11/22 11:38:13;;;;;;;0.20;0.20;;;;;;;;;;5021532;28;20284;-74
2023/11/22 11:40:41;;;;;;;0.20;0.20;;;;;;;;;;5013280;28;20249;-75
2023/11/22 11:43:07;;;;;;;0.20;0.20;;;;;;;;;;5021788;28;20235;-75
2023/11/22 11:45:36;;;;;;;0.27;0.27;;;;;;;;;;5012968;28;20249;-77
2023/11/22 11:48:03;;;;;;;0.20;0.20;;;;;;;;;;5021713;28;20205;-75
2023/11/22 11:50:31;;;;;;;0.20;0.20;;;;;;;;;;5013131;28;20272;-76
2023/11/22 11:52:57;;;;;;;0.20;0.20;;;;;;;;;;5021513;28;20301;-75
2023/11/22 11:55:23;;;;;;;0.20;0.20;;;;;;;;;;5012813;28;20247;-75
2023/11/22 11:57:50;;;;;;;0.20;0.20;;;;;;;;;;5021151;28;20240;-74
2023/11/22 12:00:16;;;;;;;0.20;0.20;;;;;;;;;;5013128;28;20531;-74
2023/11/22 12:02:43;;;;;;;0.73;0.73;;;;;;;;;;5021243;28;20273;-74
2023/11/22 12:05:09;;;;;;;0.20;0.20;;;;;;;;;;5017123;28;20209;-74
2023/11/22 12:07:37;;;;;;;0.23;0.23;;;;;;;;;;5020972;28;20276;-75
2023/11/22 12:10:05;;;;;;;0.20;0.20;;;;;;;;;;5021819;28;20239;-75
2023/11/22 12:12:32;;;;;;;0.20;0.20;;;;;;;;;;5011911;28;20233;-75
2023/11/22 12:14:58;;;;;;;0.20;0.20;;;;;;;;;;5022090;28;20410;-75
2023/11/22 12:17:26;;;;;;;0.20;0.20;;;;;;;;;;5011977;28;20252;-75
2023/11/22 12:19:53;;;;;;;0.20;0.20;;;;;;;;;;5021335;28;20509;-74
2023/11/22 12:22:19;;;;;;;0.20;0.20;;;;;;;;;;5011837;28;20237;-75
2023/11/22 12:24:47;;;;;;;0.20;0.20;;;;;;;;;;5021618;28;20213;-75
2023/11/22 12:27:14;;;;;;;0.20;0.20;;;;;;;;;;5011677;28;20237;-75
2023/11/22 12:29:42;;;;;;;0.20;0.20;;;;;;;;;;5021760;28;20393;-76
2023/11/22 12:32:09;;;;;;;0.20;0.20;;;;;;;;;;5011271;28;20305;-75
2023/11/22 12:34:36;;;;;;;0.20;0.20;;;;;;;;;;5021413;28;20251;-73
2023/11/22 12:37:02;;;;;;;0.20;0.20;;;;;;;;;;5011455;28;20245;-75
2023/11/22 12:39:29;;;;;;;0.20;0.20;;;;;;;;;;5021466;28;20225;-78
2023/11/22 12:41:57;;;;;;;0.20;0.20;;;;;;;;;;5011832;28;20323;-74
2023/11/22 12:44:24;;;;;;;0.20;0.20;;;;;;;;;;5021162;28;20208;-73
2023/11/22 12:46:56;;;;;;;0.20;0.20;;;;;;;;;;5011466;28;20237;-73
2023/11/22 12:49:22;;;;;;;0.20;0.20;;;;;;;;;;5021185;28;20198;-73
2023/11/22 12:51:49;;;;;;;0.20;0.20;;;;;;;;;;5011488;28;20307;-73
2023/11/22 12:54:15;;;;;;;0.23;0.23;;;;;;;;;;5020849;28;20292;-73
2023/11/22 12:56:42;;;;;;;0.20;0.20;;;;;;;;;;5011508;28;20252;-73
2023/11/22 12:59:12;;;;;;;0.20;0.20;;;;;;;;;;5021174;28;20505;-73
2023/11/22 13:01:38;;;;;;;0.20;0.20;;;;;;;;;;5011372;28;20268;-73
2023/11/22 13:04:05;;;;;;;0.20;0.20;;;;;;;;;;5020848;28;20531;-73
2023/11/22 13:06:31;;;;;;;0.20;0.20;;;;;;;;;;5011042;28;20244;-72
2023/11/22 13:08:58;;;;;;;0.20;0.20;;;;;;;;;;5020851;28;20239;-71
2023/11/22 13:11:24;;;;;;;0.20;0.20;;;;;;;;;;5011130;28;20320;-75
2023/11/22 13:13:51;;;;;;;0.20;0.20;;;;;;;;;;5020451;28;20256;-75
2023/11/22 13:16:18;;;;;;;0.20;0.20;;;;;;;;;;5011107;28;20244;-75
2023/11/22 13:18:45;;;;;;;0.20;0.20;;;;;;;;;;5020427;28;20205;-75
2023/11/22 13:21:11;;;;;;;0.20;0.20;;;;;;;;;;5011175;28;20248;-76
2023/11/22 13:23:38;;;;;;;0.20;0.20;;;;;;;;;;5020413;28;20201;-75
2023/11/22 13:26:05;;;;;;;0.20;0.20;;;;;;;;;;5011270;28;20256;-75
2023/11/22 13:28:32;;;;;;;0.20;0.20;;;;;;;;;;5020254;28;20272;-75
2023/11/22 13:30:59;;;;;;;0.20;0.20;;;;;;;;;;5011162;28;20252;-75
2023/11/22 13:33:28;;;;;;;0.20;0.20;;;;;;;;;;5022817;28;20240;-76
2023/11/22 13:35:54;;;;;;;0.27;0.27;;;;;;;;;;5014604;28;20311;-75
2023/11/22 13:38:20;;;;;;;0.20;0.20;;;;;;;;;;5023490;28;20248;-75
2023/11/22 13:40:47;;;;;;;0.20;0.20;;;;;;;;;;5014835;28;20286;-75
2023/11/22 13:43:14;;;;;;;0.20;0.20;;;;;;;;;;5023669;28;20307;-75
2023/11/22 13:45:41;;;;;;;0.20;0.20;;;;;;;;;;5014934;28;20568;-75
2023/11/22 13:48:09;;;;;;;0.20;0.20;;;;;;;;;;5023252;28;20215;-76
2023/11/22 13:50:37;;;;;;;0.20;0.20;;;;;;;;;;5014433;28;20308;-72
2023/11/22 13:53:04;;;;;;;0.20;0.20;;;;;;;;;;5023437;28;20512;-65
2023/11/22 13:55:30;;;;;;;0.20;0.20;;;;;;;;;;5014744;28;20238;-69
2023/11/22 13:57:57;;;;;;;0.20;0.20;;;;;;;;;;5023302;28;20280;-66
2023/11/22 14:57:41;;;;;;;0.40;0.40;;;;;;;;;;5121243;27;20616;-65
2023/11/22 15:00:13;;;;;;;0.40;0.40;;;;;;;;;;5121892;28;20425;-66
2023/11/22 15:02:39;;;;;;;0.40;0.40;;;;;;;;;;5066561;28;20407;-66
2023/11/22 15:05:09;;;;;;;0.40;0.40;;;;;;;;;;5060833;28;20204;-64
2023/11/22 15:07:35;;;;;;;0.30;0.30;;;;;;;;;;5049425;28;20210;-63
2023/11/22 15:10:02;;;;;;;0.40;0.40;;;;;;;;;;5061081;28;20211;-64
2023/11/22 15:12:30;;;;;;;0.37;0.37;;;;;;;;;;5066225;28;20242;-67
2023/11/22 15:14:59;;;;;;;0.33;0.33;;;;;;;;;;5061033;28;20210;-68
2023/11/22 15:17:25;;;;;;;0.30;0.30;;;;;;;;;;5068354;28;20257;-69
2023/11/22 15:19:51;;;;;;;0.20;0.20;;;;;;;;;;5080626;28;20207;-75
2023/11/22 15:22:18;;;;;;;0.30;0.30;;;;;;;;;;5086269;28;20313;-70
2023/11/22 15:24:44;;;;;;;0.30;0.30;;;;;;;;;;5080780;28;20268;-68
2023/11/22 15:27:10;;;;;;;0.60;0.60;;;;;;;;;;5086054;28;20493;-68
2023/11/22 15:29:37;;;;;;;0.43;0.43;;;;;;;;;;5080380;28;20202;-67
2023/11/22 15:32:05;;;;;;;0.30;0.30;;;;;;;;;;5084995;28;20255;-63
2023/11/22 15:34:31;;;;;;;0.23;0.23;;;;;;;;;;5080936;28;20206;-64
2023/11/22 15:36:58;;;;;;;0.27;0.27;;;;;;;;;;5084292;28;20518;-64
2023/11/22 15:39:24;;;;;;;0.30;0.30;;;;;;;;;;5081533;28;20293;-65